createdAt,value
2019-03-15T00:02:21.628Z,83.69
2019-03-15T00:05:26.774Z,83.99
2019-03-15T00:08:31.927Z,84.08
2019-03-15T00:11:37.033Z,82.82
2019-03-15T00:14:42.127Z,82.53
2019-03-15T00:17:47.200Z,82.56
2019-03-15T00:20:52.339Z,82.26
2019-03-15T00:23:57.494Z,82.77
2019-03-15T00:27:02.687Z,83.67
2019-03-15T00:30:08.629Z,83.00
2019-03-15T00:33:13.758Z,82.61
2019-03-15T00:36:18.949Z,81.62
2019-03-15T00:39:24.106Z,82.18
2019-03-15T00:42:29.265Z,81.01
2019-03-15T00:45:34.371Z,80.13
2019-03-15T00:48:39.445Z,79.46
2019-03-15T00:51:44.619Z,79.59
2019-03-15T00:54:49.764Z,79.60
2019-03-15T00:57:54.976Z,79.52
2019-03-15T01:01:00.078Z,81.28
2019-03-15T01:04:05.257Z,80.05
2019-03-15T01:07:10.366Z,79.76
2019-03-15T01:10:15.501Z,80.20
2019-03-15T01:13:20.703Z,80.95
2019-03-15T01:16:25.853Z,80.49
2019-03-15T01:19:31.021Z,80.38
2019-03-15T01:22:37.164Z,80.95
2019-03-15T01:25:42.348Z,80.11
2019-03-15T01:28:47.632Z,80.67
2019-03-15T01:31:52.756Z,81.58
2019-03-15T01:34:57.906Z,81.29
2019-03-15T01:38:03.012Z,81.24
2019-03-15T01:41:09.192Z,80.52
2019-03-15T01:44:14.364Z,81.06
2019-03-15T01:47:19.467Z,81.20
2019-03-15T01:50:24.658Z,81.24
2019-03-15T01:53:29.904Z,79.49
2019-03-15T01:56:35.173Z,80.09
2019-03-15T01:59:40.274Z,79.02
2019-03-15T02:02:45.474Z,78.94
2019-03-15T02:05:50.552Z,79.57
2019-03-15T02:08:55.652Z,78.96
2019-03-15T02:12:00.786Z,77.16
2019-03-15T02:15:06.320Z,78.09
2019-03-15T02:18:11.427Z,78.84
2019-03-15T02:21:16.550Z,78.16
2019-03-15T02:24:21.719Z,76.64
2019-03-15T02:27:26.935Z,78.83
2019-03-15T02:30:32.108Z,77.67
2019-03-15T02:33:37.380Z,77.74
2019-03-15T02:36:42.661Z,77.88
2019-03-15T02:39:47.798Z,78.84
2019-03-15T02:42:53.301Z,77.76
2019-03-15T02:46:00.667Z,78.36
2019-03-15T02:49:06.161Z,78.37
2019-03-15T02:52:11.348Z,78.39
2019-03-15T02:55:16.468Z,78.15
2019-03-15T02:58:21.575Z,77.64
2019-03-15T03:01:26.694Z,77.46
2019-03-15T03:04:31.846Z,77.42
2019-03-15T03:07:36.958Z,77.83
2019-03-15T03:10:42.069Z,77.15
2019-03-15T03:13:47.210Z,77.11
2019-03-15T03:16:52.371Z,76.60
2019-03-15T03:19:57.502Z,76.85
2019-03-15T03:23:04.005Z,77.69
2019-03-15T03:26:09.273Z,77.60
2019-03-15T03:29:14.417Z,77.42
2019-03-15T03:32:19.506Z,76.17
2019-03-15T03:35:25.858Z,76.59
2019-03-15T03:38:31.071Z,77.10
2019-03-15T03:41:36.203Z,77.92
2019-03-15T03:44:41.359Z,77.70
2019-03-15T03:47:46.412Z,78.18
2019-03-15T03:50:51.561Z,76.99
2019-03-15T03:53:56.714Z,78.53
2019-03-15T03:57:01.869Z,78.85
2019-03-15T04:00:07.960Z,78.88
2019-03-15T04:03:13.051Z,78.93
2019-03-15T04:06:18.213Z,78.86
2019-03-15T04:09:23.423Z,78.34
2019-03-15T04:12:29.562Z,77.85
2019-03-15T04:15:34.688Z,79.32
2019-03-15T04:18:39.801Z,78.56
2019-03-15T04:21:44.901Z,79.32
2019-03-15T04:24:49.993Z,78.76
2019-03-15T04:27:55.208Z,78.06
2019-03-15T04:31:00.345Z,78.00
2019-03-15T04:34:05.481Z,77.96
2019-03-15T04:37:10.689Z,79.03
2019-03-15T04:40:15.833Z,78.95
2019-03-15T04:43:20.934Z,79.76
2019-03-15T04:46:26.023Z,79.90
2019-03-15T04:49:31.208Z,79.47
2019-03-15T04:52:36.392Z,78.47
2019-03-15T04:55:41.519Z,78.99
2019-03-15T04:58:46.762Z,79.48
2019-03-15T05:01:51.892Z,79.78
2019-03-15T05:05:00.201Z,78.90
2019-03-15T05:08:03.888Z,79.78
2019-03-15T05:11:09.061Z,78.95
2019-03-15T05:14:14.166Z,79.91
2019-03-15T05:17:19.291Z,79.84
2019-03-15T05:20:24.371Z,79.27
2019-03-15T05:23:29.486Z,79.72
2019-03-15T05:26:34.641Z,79.19
2019-03-15T05:29:39.803Z,79.40
2019-03-15T05:32:44.916Z,80.38
2019-03-15T05:35:50.025Z,80.54
2019-03-15T05:38:55.221Z,80.18
2019-03-15T05:42:00.403Z,81.23
2019-03-15T05:45:06.158Z,80.99
2019-03-15T05:48:11.331Z,80.55
2019-03-15T05:51:16.458Z,80.77
2019-03-15T05:54:21.619Z,80.84
2019-03-15T05:57:26.686Z,80.95
2019-03-15T06:00:31.833Z,80.96
2019-03-15T06:03:47.887Z,81.27
2019-03-15T06:06:44.266Z,81.02
2019-03-15T06:09:49.333Z,81.34
2019-03-15T06:12:54.491Z,81.20
2019-03-15T06:15:59.649Z,81.30
2019-03-15T06:19:04.753Z,80.81
2019-03-15T06:22:09.883Z,80.52
2019-03-15T06:25:15.062Z,80.76
2019-03-15T06:28:21.284Z,81.63
2019-03-15T06:31:26.477Z,81.03
2019-03-15T06:34:31.630Z,78.84
2019-03-15T06:37:36.772Z,79.02
2019-03-15T06:40:41.867Z,79.29
2019-03-15T06:43:47.024Z,80.94
2019-03-15T06:46:52.126Z,79.77
2019-03-15T06:49:57.288Z,80.51
2019-03-15T06:53:02.416Z,81.47
2019-03-15T06:56:07.578Z,80.21
2019-03-15T06:59:12.697Z,80.64
2019-03-15T07:02:17.836Z,82.69
2019-03-15T07:05:22.944Z,81.37
2019-03-15T07:08:28.100Z,81.23
2019-03-15T07:11:33.240Z,80.78
2019-03-15T07:14:38.320Z,80.97
2019-03-15T07:17:43.429Z,82.28
2019-03-15T07:20:48.584Z,81.93
2019-03-15T07:23:53.703Z,81.75
2019-03-15T07:27:11.793Z,81.63
2019-03-15T07:30:05.907Z,81.33
2019-03-15T07:33:11.010Z,81.41
2019-03-15T07:36:16.127Z,80.72
2019-03-15T07:39:21.251Z,79.79
2019-03-15T07:42:26.330Z,78.77
2019-03-15T07:45:31.556Z,80.67
2019-03-15T07:48:36.737Z,80.16
2019-03-15T07:51:41.869Z,81.92
2019-03-15T07:54:47.029Z,81.75
2019-03-15T07:57:52.187Z,81.84
2019-03-15T08:00:57.277Z,82.03
2019-03-15T08:04:15.848Z,82.43
2019-03-15T08:07:09.158Z,81.62
2019-03-15T08:10:14.498Z,82.21
2019-03-15T08:13:19.596Z,83.38
2019-03-15T08:16:25.820Z,84.20
2019-03-15T08:19:30.934Z,84.53
2019-03-15T08:22:36.078Z,85.49
2019-03-15T08:25:41.151Z,85.90
2019-03-15T08:28:46.254Z,85.35
2019-03-15T08:31:51.341Z,85.05
2019-03-15T08:34:56.490Z,85.92
2019-03-15T08:38:01.596Z,84.95
2019-03-15T08:41:06.750Z,85.35
2019-03-15T08:44:11.879Z,85.39
2019-03-15T08:47:17.047Z,84.87
2019-03-15T08:50:24.501Z,85.93
2019-03-15T08:53:28.987Z,86.37
2019-03-15T08:56:34.096Z,87.09
2019-03-15T08:59:52.455Z,84.73
2019-03-15T09:02:46.096Z,85.07
2019-03-15T09:05:51.265Z,85.39
2019-03-15T09:08:56.438Z,84.90
2019-03-15T09:12:01.654Z,85.11
2019-03-15T09:15:06.869Z,85.32
2019-03-15T09:18:11.982Z,85.59
2019-03-15T09:21:17.195Z,85.04
2019-03-15T09:24:22.330Z,86.77
2019-03-15T09:27:27.428Z,84.79
2019-03-15T09:30:32.600Z,83.86
2019-03-15T09:33:37.703Z,85.50
2019-03-15T09:36:50.098Z,87.19
2019-03-15T09:39:49.662Z,87.73
2019-03-15T09:42:54.789Z,87.96
2019-03-15T09:45:59.925Z,88.88
2019-03-15T09:49:05.026Z,88.95
2019-03-15T09:52:10.145Z,86.84
2019-03-15T09:55:15.234Z,88.11
2019-03-15T09:58:20.427Z,87.97
2019-03-15T10:01:34.714Z,86.88
2019-03-15T10:04:35.783Z,85.73
2019-03-15T10:07:42.939Z,86.16
2019-03-15T10:10:48.944Z,84.57
2019-03-15T10:13:53.372Z,83.79
2019-03-15T10:16:58.448Z,83.91
2019-03-15T10:20:03.584Z,85.17
2019-03-15T10:23:08.704Z,85.36
2019-03-15T10:26:15.118Z,86.02
2019-03-15T10:29:20.484Z,85.57
2019-03-15T10:32:25.647Z,85.59
2019-03-15T10:35:30.819Z,86.30
2019-03-15T10:38:35.923Z,86.79
2019-03-15T10:41:41.143Z,86.34
2019-03-15T10:44:46.212Z,86.48
2019-03-15T10:47:51.379Z,86.16
2019-03-15T10:50:56.501Z,84.67
2019-03-15T10:54:01.685Z,84.63
2019-03-15T10:57:06.807Z,84.29
2019-03-15T11:00:13.551Z,84.09
2019-03-15T11:03:18.674Z,85.05
2019-03-15T11:06:23.841Z,85.91
2019-03-15T11:09:29.120Z,84.00
2019-03-15T11:12:34.397Z,85.11
2019-03-15T11:15:39.608Z,85.11
2019-03-15T11:18:44.812Z,83.74
2019-03-15T11:21:49.978Z,84.01
2019-03-15T11:24:55.140Z,84.66
2019-03-15T11:28:00.299Z,84.94
2019-03-15T11:31:05.416Z,85.27
2019-03-15T11:34:10.516Z,87.27
2019-03-15T11:37:16.009Z,86.31
2019-03-15T11:40:21.169Z,85.94
2019-03-15T11:43:26.387Z,87.38
2019-03-15T11:46:31.697Z,84.67
2019-03-15T11:49:36.850Z,85.79
2019-03-15T11:52:42.002Z,87.45
2019-03-15T11:55:47.246Z,86.67
2019-03-15T11:58:52.437Z,86.83
2019-03-15T12:02:04.036Z,87.21
2019-03-15T12:05:04.629Z,87.49
2019-03-15T12:08:09.752Z,87.26
2019-03-15T12:11:14.940Z,88.38
2019-03-15T12:14:20.090Z,88.11
2019-03-15T12:17:25.209Z,87.29
2019-03-15T12:20:30.509Z,89.14
2019-03-15T12:23:35.620Z,88.99
2019-03-15T12:26:41.033Z,89.22
2019-03-15T12:29:46.192Z,87.86
2019-03-15T12:32:51.467Z,88.61
2019-03-15T12:35:56.641Z,88.92
2019-03-15T12:39:01.792Z,89.94
2019-03-15T12:42:08.313Z,89.75
2019-03-15T12:45:13.602Z,89.50
2019-03-15T12:48:18.759Z,89.60
2019-03-15T12:51:31.947Z,88.37
2019-03-15T12:54:30.788Z,88.39
2019-03-15T12:57:35.939Z,85.78
2019-03-15T13:00:41.073Z,87.38
2019-03-15T13:03:46.190Z,86.25
2019-03-15T13:06:51.384Z,86.39
2019-03-15T13:09:56.548Z,86.03
2019-03-15T13:13:01.701Z,86.40
2019-03-15T13:16:06.802Z,86.49
2019-03-15T13:19:11.892Z,84.82
2019-03-15T13:22:17.029Z,84.82
2019-03-15T13:25:22.113Z,85.32
2019-03-15T13:28:27.229Z,85.87
2019-03-15T13:31:32.501Z,83.12
2019-03-15T13:34:37.653Z,84.88
2019-03-15T13:37:43.457Z,83.42
2019-03-15T13:40:48.725Z,84.75
2019-03-15T13:43:53.893Z,84.31
2019-03-15T13:46:59.017Z,81.53
2019-03-15T13:50:05.554Z,83.11
2019-03-15T13:53:10.693Z,80.39
2019-03-15T13:56:15.796Z,80.60
2019-03-15T13:59:20.864Z,79.43
2019-03-15T14:02:26.202Z,80.14
2019-03-15T14:05:31.419Z,81.48
2019-03-15T14:08:36.659Z,80.85
2019-03-15T14:11:41.772Z,80.48
2019-03-15T14:14:46.968Z,79.16
2019-03-15T14:17:53.115Z,79.08
2019-03-15T14:20:58.248Z,79.27
2019-03-15T14:24:03.564Z,80.08
2019-03-15T14:27:08.864Z,81.94
2019-03-15T14:30:14.116Z,80.89
2019-03-15T14:33:19.254Z,80.82
2019-03-15T14:36:24.399Z,82.60
2019-03-15T14:39:29.725Z,83.86
2019-03-15T14:42:35.008Z,83.51
2019-03-15T14:45:40.192Z,82.01
2019-03-15T14:48:45.276Z,83.37
2019-03-15T14:51:50.420Z,82.32
2019-03-15T14:54:55.526Z,83.09
2019-03-15T14:58:01.733Z,83.00
2019-03-15T15:01:06.833Z,83.24
2019-03-15T15:04:11.969Z,80.42
2019-03-15T15:07:17.080Z,80.74
2019-03-15T15:10:22.280Z,80.70
2019-03-15T15:13:27.373Z,80.01
2019-03-15T15:16:32.610Z,80.97
2019-03-15T15:19:37.781Z,79.82
2019-03-15T15:22:44.036Z,80.51
2019-03-15T15:25:49.190Z,81.33
2019-03-15T15:28:55.396Z,81.78
2019-03-15T15:32:00.575Z,83.20
2019-03-15T15:35:06.436Z,82.65
2019-03-15T15:38:11.635Z,81.80
2019-03-15T15:41:16.851Z,82.32
2019-03-15T15:44:22.869Z,82.04
2019-03-15T15:47:27.994Z,81.15
2019-03-15T15:50:33.150Z,81.51
2019-03-15T15:53:38.296Z,80.92
2019-03-15T15:56:43.412Z,80.30
2019-03-15T15:59:48.573Z,82.06
2019-03-15T16:02:53.718Z,85.00
2019-03-15T16:05:58.830Z,85.09
2019-03-15T16:09:04.454Z,86.26
2019-03-15T16:12:09.692Z,84.84
2019-03-15T16:15:14.955Z,85.95
2019-03-15T16:18:20.109Z,85.58
2019-03-15T16:21:25.253Z,86.30
2019-03-15T16:24:30.402Z,85.91
2019-03-15T16:27:35.571Z,86.96
2019-03-15T16:30:40.764Z,87.12
2019-03-15T16:33:47.061Z,85.31
2019-03-15T16:36:52.239Z,86.15
2019-03-15T16:39:57.393Z,86.21
2019-03-15T16:43:02.531Z,87.55
2019-03-15T16:46:07.655Z,87.72
2019-03-15T16:49:12.814Z,88.09
2019-03-15T16:52:18.034Z,87.88
2019-03-15T16:55:23.164Z,86.91
2019-03-15T16:58:28.361Z,87.73
2019-03-15T17:01:33.570Z,88.22
2019-03-15T17:04:38.999Z,87.29
2019-03-15T17:07:44.317Z,87.22
2019-03-15T17:10:49.436Z,88.00
2019-03-15T17:13:54.612Z,88.07
2019-03-15T17:16:59.745Z,86.78
2019-03-15T17:20:05.364Z,87.55
2019-03-15T17:23:10.457Z,87.73
2019-03-15T17:26:15.638Z,87.96
2019-03-15T17:29:20.780Z,88.08
2019-03-15T17:32:25.943Z,86.82
2019-03-15T17:35:31.087Z,86.87
2019-03-15T17:38:36.228Z,87.81
2019-03-15T17:41:41.415Z,86.06
2019-03-15T17:44:46.527Z,87.48
2019-03-15T17:47:52.716Z,86.40
2019-03-15T17:50:57.873Z,86.28
2019-03-15T17:54:03.118Z,86.06
2019-03-15T17:57:08.230Z,86.00
2019-03-15T18:00:17.521Z,86.60
2019-03-15T18:03:23.218Z,88.60
2019-03-15T18:06:28.405Z,87.82
2019-03-15T18:09:33.640Z,88.21
2019-03-15T18:12:38.786Z,88.65
2019-03-15T18:15:43.978Z,89.14
2019-03-15T18:18:49.159Z,89.23
2019-03-15T18:21:54.316Z,88.27
2019-03-15T18:24:59.580Z,88.28
2019-03-15T18:28:04.862Z,88.29
2019-03-15T18:31:09.985Z,88.42
2019-03-15T18:34:15.139Z,88.86
2019-03-15T18:37:20.294Z,88.25
2019-03-15T18:40:25.550Z,89.24
2019-03-15T18:43:30.720Z,90.54
2019-03-15T18:46:36.061Z,90.02
2019-03-15T18:49:42.374Z,90.32
2019-03-15T18:52:47.513Z,91.26
2019-03-15T18:55:52.645Z,90.97
2019-03-15T18:58:57.860Z,91.00
2019-03-15T19:02:02.993Z,90.33
2019-03-15T19:05:08.784Z,89.70
2019-03-15T19:08:15.020Z,90.97
2019-03-15T19:11:21.050Z,89.12
2019-03-15T19:14:26.637Z,89.96
2019-03-15T19:17:31.860Z,90.64
2019-03-15T19:20:37.090Z,91.11
2019-03-15T19:23:42.141Z,90.75
2019-03-15T19:26:47.323Z,90.76
2019-03-15T19:29:53.885Z,89.79
2019-03-15T19:32:59.359Z,90.39
2019-03-15T19:36:04.569Z,90.78
2019-03-15T19:39:09.750Z,90.82
2019-03-15T19:42:14.875Z,89.56
2019-03-15T19:45:20.328Z,90.87
2019-03-15T19:48:25.581Z,91.31
2019-03-15T19:51:30.657Z,90.54
2019-03-15T19:54:35.827Z,90.11
2019-03-15T19:57:41.136Z,91.33
2019-03-15T20:00:46.242Z,89.84
2019-03-15T20:03:51.384Z,90.17
2019-03-15T20:06:56.489Z,89.90
2019-03-15T20:10:01.636Z,90.33
2019-03-15T20:13:07.939Z,90.39
2019-03-15T20:16:13.207Z,90.39
2019-03-15T20:19:18.461Z,89.44
2019-03-15T20:22:23.703Z,89.56
2019-03-15T20:25:28.808Z,90.19
2019-03-15T20:28:34.037Z,90.79
2019-03-15T20:31:39.268Z,90.48
2019-03-15T20:34:44.478Z,90.24
2019-03-15T20:37:49.567Z,89.95
2019-03-15T20:40:54.829Z,90.23
2019-03-15T20:44:00.618Z,89.16
2019-03-15T20:47:05.898Z,89.30
2019-03-15T20:50:12.144Z,88.38
2019-03-15T20:53:17.301Z,89.15
2019-03-15T20:56:22.381Z,89.23
2019-03-15T20:59:27.650Z,90.58
2019-03-15T21:02:32.765Z,91.31
2019-03-15T21:05:37.987Z,89.96
2019-03-15T21:08:43.145Z,90.61
2019-03-15T21:11:48.308Z,90.44
2019-03-15T21:14:53.559Z,90.78
2019-03-15T21:17:58.840Z,91.06
2019-03-15T21:21:03.940Z,91.24
2019-03-15T21:24:09.188Z,90.65
2019-03-15T21:27:14.306Z,91.49
2019-03-15T21:30:19.479Z,92.13
2019-03-15T21:33:24.580Z,92.71
2019-03-15T21:36:29.751Z,92.42
2019-03-15T21:39:35.028Z,91.21
2019-03-15T21:42:40.254Z,91.72
2019-03-15T21:45:45.478Z,92.04
2019-03-15T21:48:50.648Z,92.19
2019-03-15T21:51:55.885Z,92.73
2019-03-15T21:55:01.450Z,92.13
2019-03-15T21:58:06.659Z,91.92
2019-03-15T22:01:11.822Z,91.62
2019-03-15T22:04:17.106Z,91.02
2019-03-15T22:07:22.290Z,91.34
2019-03-15T22:10:27.556Z,90.05
2019-03-15T22:13:32.706Z,89.78
2019-03-15T22:16:38.907Z,89.02
2019-03-15T22:19:44.118Z,89.69
2019-03-15T22:22:49.334Z,89.93
2019-03-15T22:25:54.477Z,90.32
2019-03-15T22:28:59.724Z,89.27
2019-03-15T22:32:04.886Z,89.35
2019-03-15T22:35:10.128Z,89.14
2019-03-15T22:38:25.722Z,90.07
2019-03-15T22:41:22.352Z,86.38
2019-03-15T22:44:27.523Z,89.04
2019-03-15T22:47:32.649Z,91.73
2019-03-15T22:50:37.763Z,92.05
2019-03-15T22:53:42.852Z,93.74
2019-03-15T22:56:49.114Z,92.78
2019-03-15T22:59:54.238Z,93.99
2019-03-15T23:02:59.506Z,94.31
2019-03-15T23:06:04.625Z,94.06
2019-03-15T23:09:09.771Z,95.57
2019-03-15T23:12:14.931Z,96.03
2019-03-15T23:15:20.237Z,94.88
2019-03-15T23:18:25.383Z,94.54
2019-03-15T23:21:30.567Z,96.32
2019-03-15T23:24:35.687Z,95.99
2019-03-15T23:27:40.863Z,94.55
2019-03-15T23:30:45.969Z,93.80
2019-03-15T23:33:51.182Z,95.01
2019-03-15T23:36:56.290Z,95.49
2019-03-15T23:40:01.495Z,94.78
2019-03-15T23:43:06.653Z,95.01
2019-03-15T23:46:11.755Z,94.70
2019-03-15T23:49:16.890Z,95.34
2019-03-15T23:52:22.018Z,96.24
2019-03-15T23:55:27.161Z,95.09
2019-03-15T23:58:32.875Z,95.01
